createdAt,value
2023-04-27T00:00:14.430Z,38.26
2023-04-27T00:01:14.441Z,38.18
2023-04-27T00:02:14.541Z,38.19
2023-04-27T00:03:14.673Z,38.16
2023-04-27T00:04:14.821Z,38.14
2023-04-27T00:05:14.752Z,38.15
2023-04-27T00:06:14.737Z,38.13
2023-04-27T00:07:14.627Z,38.13
2023-04-27T00:08:14.616Z,38.15
2023-04-27T00:09:14.900Z,38.05
2023-04-27T00:10:14.713Z,37.97
2023-04-27T00:11:14.685Z,38.00
2023-04-27T00:12:14.754Z,38.01
2023-04-27T00:13:14.777Z,37.93
2023-04-27T00:14:14.780Z,37.93
2023-04-27T00:15:14.797Z,37.91
2023-04-27T00:16:14.864Z,37.90
2023-04-27T00:17:14.866Z,37.91
2023-04-27T00:18:14.848Z,37.86
2023-04-27T00:19:15.165Z,37.78
2023-04-27T00:20:14.924Z,37.84
2023-04-27T00:21:14.920Z,37.80
2023-04-27T00:22:15.078Z,37.76
2023-04-27T00:23:14.999Z,37.78
2023-04-27T00:24:15.012Z,37.76
2023-04-27T00:25:15.047Z,37.74
2023-04-27T00:26:15.061Z,37.74
2023-04-27T00:27:15.106Z,37.76
2023-04-27T00:28:15.086Z,37.73
2023-04-27T00:29:15.296Z,37.69
2023-04-27T00:30:15.160Z,37.71
2023-04-27T00:31:15.306Z,37.70
2023-04-27T00:32:15.321Z,37.60
2023-04-27T00:33:15.203Z,37.62
2023-04-27T00:34:15.274Z,37.60
2023-04-27T00:35:15.292Z,37.59
2023-04-27T00:36:15.329Z,37.55
2023-04-27T00:37:15.363Z,37.55
2023-04-27T00:38:15.368Z,37.59
2023-04-27T00:39:15.689Z,37.59
2023-04-27T00:40:15.460Z,37.49
2023-04-27T00:41:15.473Z,37.52
2023-04-27T00:42:15.505Z,37.49
2023-04-27T00:43:15.510Z,37.50
2023-04-27T00:44:15.547Z,37.41
2023-04-27T00:45:15.624Z,37.49
2023-04-27T00:46:15.675Z,37.40
2023-04-27T00:47:15.688Z,37.31
2023-04-27T00:48:15.688Z,37.45
2023-04-27T00:49:15.713Z,37.34
2023-04-27T00:50:15.753Z,37.31
2023-04-27T00:51:15.775Z,37.29
2023-04-27T00:52:15.830Z,37.39
2023-04-27T00:53:15.848Z,37.20
2023-04-27T00:54:15.859Z,37.32
2023-04-27T00:55:15.914Z,37.28
2023-04-27T00:56:15.930Z,37.23
2023-04-27T00:57:15.983Z,37.26
2023-04-27T00:58:16.021Z,37.25
2023-04-27T00:59:16.119Z,37.23
2023-04-27T01:00:16.065Z,37.25
2023-04-27T01:01:16.136Z,37.21
2023-04-27T01:02:16.179Z,37.21
2023-04-27T01:03:16.413Z,37.19
2023-04-27T01:04:16.377Z,37.16
2023-04-27T01:05:16.224Z,37.21
2023-04-27T01:06:16.281Z,37.10
2023-04-27T01:07:16.308Z,37.12
2023-04-27T01:08:16.305Z,37.15
2023-04-27T01:09:16.350Z,37.12
2023-04-27T01:10:16.387Z,37.10
2023-04-27T01:11:16.416Z,37.07
2023-04-27T01:12:16.456Z,37.00
2023-04-27T01:13:16.493Z,37.01
2023-04-27T01:14:16.506Z,37.03
2023-04-27T01:15:16.530Z,37.01
2023-04-27T01:16:16.566Z,36.98
2023-04-27T01:17:16.607Z,36.94
2023-04-27T01:18:16.624Z,37.01
2023-04-27T01:19:16.667Z,37.06
2023-04-27T01:20:16.678Z,36.95
2023-04-27T01:21:16.734Z,36.93
2023-04-27T01:22:16.749Z,36.88
2023-04-27T01:23:17.468Z,36.92
2023-04-27T01:24:16.796Z,36.85
2023-04-27T01:25:16.875Z,36.89
2023-04-27T01:26:16.896Z,36.88
2023-04-27T01:27:16.950Z,36.85
2023-04-27T01:28:16.970Z,36.84
2023-04-27T01:29:16.993Z,36.82
2023-04-27T01:30:16.991Z,36.82
2023-04-27T01:31:17.099Z,36.81
2023-04-27T01:32:17.097Z,36.78
2023-04-27T01:33:17.113Z,36.78
2023-04-27T01:34:17.766Z,36.79
2023-04-27T01:35:17.175Z,36.75
2023-04-27T01:36:17.220Z,36.74
2023-04-27T01:37:17.250Z,36.72
2023-04-27T01:38:17.263Z,36.66
2023-04-27T01:39:17.285Z,36.70
2023-04-27T01:40:17.359Z,36.63
2023-04-27T01:41:17.381Z,36.65
2023-04-27T01:42:17.425Z,36.68
2023-04-27T01:43:17.455Z,36.69
2023-04-27T01:44:17.504Z,36.63
2023-04-27T01:45:17.542Z,36.58
2023-04-27T01:46:17.575Z,36.59
2023-04-27T01:47:17.608Z,36.60
2023-04-27T01:48:17.626Z,36.60
2023-04-27T01:49:17.740Z,36.58
2023-04-27T01:50:17.718Z,36.60
2023-04-27T01:51:17.723Z,36.60
2023-04-27T01:52:17.791Z,36.54
2023-04-27T01:53:17.813Z,36.47
2023-04-27T01:54:17.830Z,36.54
2023-04-27T01:55:17.854Z,36.48
2023-04-27T01:56:17.885Z,36.50
2023-04-27T01:57:17.945Z,36.51
2023-04-27T01:58:17.963Z,36.46
2023-04-27T01:59:18.026Z,36.47
2023-04-27T02:00:18.072Z,36.47
2023-04-27T02:01:18.094Z,36.48
2023-04-27T02:02:18.157Z,36.45
2023-04-27T02:03:18.400Z,36.42
2023-04-27T02:04:18.406Z,36.44
2023-04-27T02:05:18.220Z,36.45
2023-04-27T02:06:18.274Z,36.31
2023-04-27T02:07:18.316Z,36.39
2023-04-27T02:08:18.322Z,36.32
2023-04-27T02:09:18.386Z,36.37
2023-04-27T02:10:18.403Z,36.36
2023-04-27T02:11:18.438Z,36.33
2023-04-27T02:12:18.519Z,36.33
2023-04-27T02:13:18.543Z,36.34
2023-04-27T02:14:18.572Z,36.33
2023-04-27T02:15:18.598Z,36.31
2023-04-27T02:16:18.673Z,36.29
2023-04-27T02:17:18.687Z,36.39
2023-04-27T02:18:18.712Z,36.08
2023-04-27T02:19:18.756Z,36.25
2023-04-27T02:20:18.809Z,36.32
2023-04-27T02:21:18.826Z,36.25
2023-04-27T02:22:18.885Z,36.22
2023-04-27T02:23:18.954Z,36.30
2023-04-27T02:24:18.972Z,36.23
2023-04-27T02:25:19.035Z,36.21
2023-04-27T02:26:19.076Z,36.19
2023-04-27T02:27:19.098Z,36.18
2023-04-27T02:28:19.133Z,36.22
2023-04-27T02:29:19.169Z,36.12
2023-04-27T02:30:19.234Z,36.12
2023-04-27T02:31:19.306Z,36.10
2023-04-27T02:32:19.291Z,36.15
2023-04-27T02:33:19.318Z,36.17
2023-04-27T02:34:19.350Z,36.11
2023-04-27T02:35:19.493Z,36.07
2023-04-27T02:36:19.432Z,36.01
2023-04-27T02:37:19.496Z,36.07
2023-04-27T02:38:19.533Z,36.12
2023-04-27T02:39:19.610Z,36.01
2023-04-27T02:40:19.609Z,36.06
2023-04-27T02:41:19.619Z,35.98
2023-04-27T02:42:19.712Z,36.01
2023-04-27T02:43:19.753Z,35.99
2023-04-27T02:44:19.788Z,36.03
2023-04-27T02:45:19.808Z,35.99
2023-04-27T02:46:19.884Z,35.97
2023-04-27T02:47:19.928Z,35.95
2023-04-27T02:48:19.948Z,35.92
2023-04-27T02:49:19.985Z,35.93
2023-04-27T02:50:20.017Z,35.87
2023-04-27T02:51:20.108Z,35.87
2023-04-27T02:52:20.121Z,35.93
2023-04-27T02:53:20.176Z,35.87
2023-04-27T02:54:20.243Z,35.78
2023-04-27T02:55:20.263Z,35.82
2023-04-27T02:56:20.296Z,35.86
2023-04-27T02:57:20.337Z,35.85
2023-04-27T02:58:20.458Z,35.84
2023-04-27T02:59:20.420Z,35.80
2023-04-27T03:00:20.477Z,35.84
2023-04-27T03:01:20.581Z,35.80
2023-04-27T03:02:20.618Z,35.86
2023-04-27T03:03:20.695Z,35.80
2023-04-27T03:04:20.737Z,35.79
2023-04-27T03:05:20.642Z,35.73
2023-04-27T03:06:20.662Z,35.65
2023-04-27T03:07:20.728Z,35.69
2023-04-27T03:08:20.765Z,35.64
2023-04-27T03:09:20.819Z,35.68
2023-04-27T03:10:20.871Z,35.74
2023-04-27T03:11:20.915Z,35.69
2023-04-27T03:12:20.938Z,35.70
2023-04-27T03:13:20.977Z,35.68
2023-04-27T03:14:21.051Z,35.64
2023-04-27T03:15:21.089Z,35.66
2023-04-27T03:16:21.179Z,35.68
2023-04-27T03:17:21.153Z,35.63
2023-04-27T03:18:21.205Z,35.64
2023-04-27T03:19:21.256Z,35.59
2023-04-27T03:20:21.309Z,35.56
2023-04-27T03:21:21.331Z,35.62
2023-04-27T03:22:21.378Z,35.62
2023-04-27T03:23:21.425Z,35.59
2023-04-27T03:24:21.480Z,35.57
2023-04-27T03:25:21.504Z,35.58
2023-04-27T03:26:21.546Z,35.55
2023-04-27T03:27:21.574Z,35.56
2023-04-27T03:28:21.637Z,35.56
2023-04-27T03:29:21.692Z,35.50
2023-04-27T03:30:21.708Z,35.49
2023-04-27T03:31:21.832Z,35.49
2023-04-27T03:32:21.777Z,35.50
2023-04-27T03:33:21.856Z,35.42
2023-04-27T03:34:21.930Z,35.51
2023-04-27T03:35:21.945Z,35.48
2023-04-27T03:36:21.966Z,35.49
2023-04-27T03:37:22.067Z,35.39
2023-04-27T03:38:22.112Z,35.39
2023-04-27T03:39:22.125Z,35.44
2023-04-27T03:40:22.188Z,35.46
2023-04-27T03:41:22.840Z,35.37
2023-04-27T03:42:22.310Z,35.40
2023-04-27T03:43:22.333Z,35.31
2023-04-27T03:44:22.379Z,35.34
2023-04-27T03:45:22.423Z,35.40
2023-04-27T03:46:22.498Z,35.40
2023-04-27T03:47:22.569Z,35.35
2023-04-27T03:48:22.585Z,35.37
2023-04-27T03:49:22.595Z,35.35
2023-04-27T03:50:22.663Z,35.38
2023-04-27T03:51:22.702Z,35.34
2023-04-27T03:52:22.767Z,35.33
2023-04-27T03:53:22.828Z,35.38
2023-04-27T03:54:22.852Z,35.32
2023-04-27T03:55:22.886Z,35.29
2023-04-27T03:56:22.969Z,35.30
2023-04-27T03:57:22.987Z,35.31
2023-04-27T03:58:23.032Z,35.25
2023-04-27T03:59:23.086Z,35.29
2023-04-27T04:00:23.088Z,35.25
2023-04-27T04:01:23.144Z,35.25
2023-04-27T04:02:23.355Z,35.24
2023-04-27T04:03:23.413Z,35.23
2023-04-27T04:04:23.477Z,35.32
2023-04-27T04:05:23.420Z,35.25
2023-04-27T04:06:23.388Z,35.16
2023-04-27T04:07:23.444Z,35.21
2023-04-27T04:08:23.499Z,35.25
2023-04-27T04:09:24.053Z,35.28
2023-04-27T04:10:23.569Z,35.20
2023-04-27T04:11:23.621Z,35.14
2023-04-27T04:12:23.660Z,35.21
2023-04-27T04:13:23.692Z,35.22
2023-04-27T04:14:23.783Z,35.07
2023-04-27T04:15:23.805Z,35.16
2023-04-27T04:16:23.855Z,35.19
2023-04-27T04:17:23.947Z,35.21
2023-04-27T04:18:23.944Z,35.21
2023-04-27T04:19:24.020Z,35.17
2023-04-27T04:20:24.064Z,35.18
2023-04-27T04:21:24.094Z,35.17
2023-04-27T04:22:24.138Z,35.21
2023-04-27T04:23:24.165Z,35.23
2023-04-27T04:24:24.230Z,35.16
2023-04-27T04:25:24.246Z,35.21
2023-04-27T04:26:24.333Z,35.21
2023-04-27T04:27:24.386Z,35.20
2023-04-27T04:28:24.422Z,35.13
2023-04-27T04:29:24.432Z,35.15
2023-04-27T04:30:24.517Z,35.21
2023-04-27T04:31:24.615Z,35.18
2023-04-27T04:32:24.601Z,35.11
2023-04-27T04:33:24.657Z,35.17
2023-04-27T04:34:24.707Z,35.12
2023-04-27T04:35:24.758Z,35.14
2023-04-27T04:36:24.814Z,35.13
2023-04-27T04:37:24.870Z,35.12
2023-04-27T04:38:24.914Z,35.14
2023-04-27T04:39:24.972Z,35.14
2023-04-27T04:40:25.000Z,35.15
2023-04-27T04:41:25.088Z,35.12
2023-04-27T04:42:25.124Z,35.14
2023-04-27T04:43:25.181Z,35.16
2023-04-27T04:44:25.225Z,35.16
2023-04-27T04:45:25.276Z,35.18
2023-04-27T04:46:25.357Z,35.15
2023-04-27T04:47:25.479Z,34.96
2023-04-27T04:48:25.465Z,34.82
2023-04-27T04:49:25.470Z,35.05
2023-04-27T04:50:25.587Z,35.41
2023-04-27T04:51:25.628Z,35.44
2023-04-27T04:52:25.654Z,35.59
2023-04-27T04:53:25.748Z,35.67
2023-04-27T04:54:25.760Z,36.02
2023-04-27T04:55:25.840Z,36.64
2023-04-27T04:56:25.867Z,36.79
2023-04-27T04:57:25.942Z,37.00
2023-04-27T04:58:25.996Z,37.17
2023-04-27T04:59:26.210Z,37.56
2023-04-27T05:00:26.120Z,37.79
2023-04-27T05:01:26.176Z,37.71
2023-04-27T05:02:26.412Z,38.09
2023-04-27T05:03:26.367Z,37.80
2023-04-27T05:04:26.459Z,37.89
2023-04-27T05:05:26.385Z,38.07
2023-04-27T05:06:26.423Z,38.46
2023-04-27T05:07:26.491Z,38.96
2023-04-27T05:08:26.530Z,39.33
2023-04-27T05:09:26.622Z,39.76
2023-04-27T05:10:26.635Z,40.09
2023-04-27T05:11:26.710Z,40.16
2023-04-27T05:12:26.749Z,40.44
2023-04-27T05:13:26.816Z,40.61
2023-04-27T05:14:26.866Z,40.31
2023-04-27T05:15:26.919Z,40.47
2023-04-27T05:16:26.979Z,41.20
2023-04-27T05:17:27.040Z,41.95
2023-04-27T05:18:27.060Z,41.63
2023-04-27T05:19:27.126Z,41.43
2023-04-27T05:20:27.210Z,41.37
2023-04-27T05:21:27.202Z,41.29
2023-04-27T05:22:27.270Z,41.41
2023-04-27T05:23:27.325Z,41.61
2023-04-27T05:24:27.395Z,41.65
2023-04-27T05:25:27.387Z,41.88
2023-04-27T05:26:27.449Z,41.91
2023-04-27T05:27:27.486Z,42.29
2023-04-27T05:28:27.555Z,42.34
2023-04-27T05:29:27.573Z,42.53
2023-04-27T05:30:27.629Z,42.57
2023-04-27T05:31:27.666Z,42.69
2023-04-27T05:32:27.757Z,42.50
2023-04-27T05:33:27.760Z,42.89
2023-04-27T05:34:27.784Z,42.98
2023-04-27T05:35:27.867Z,43.50
2023-04-27T05:36:27.866Z,43.75
2023-04-27T05:37:27.897Z,44.00
2023-04-27T05:38:27.961Z,44.07
2023-04-27T05:39:28.000Z,44.18
2023-04-27T05:40:28.054Z,44.19
2023-04-27T05:41:28.087Z,44.29
2023-04-27T05:42:28.117Z,44.60
2023-04-27T05:43:28.174Z,44.76
2023-04-27T05:44:28.223Z,44.91
2023-04-27T05:45:28.230Z,44.76
2023-04-27T05:46:28.325Z,45.14
2023-04-27T05:47:28.352Z,44.74
2023-04-27T05:48:28.846Z,45.10
2023-04-27T05:49:28.420Z,45.31
2023-04-27T05:50:28.455Z,45.58
2023-04-27T05:51:28.458Z,45.38
2023-04-27T05:52:28.883Z,45.34
2023-04-27T05:53:28.550Z,45.64
2023-04-27T05:54:28.581Z,45.77
2023-04-27T05:55:28.600Z,45.99
2023-04-27T05:56:28.619Z,46.30
2023-04-27T05:57:28.912Z,46.45
2023-04-27T05:58:28.677Z,46.98
2023-04-27T05:59:28.727Z,46.97
2023-04-27T06:00:28.799Z,46.99
2023-04-27T06:01:28.765Z,47.16
2023-04-27T06:02:29.034Z,47.07
2023-04-27T06:03:29.188Z,47.06
2023-04-27T06:04:29.061Z,47.15
2023-04-27T06:05:28.955Z,47.14
2023-04-27T06:06:28.892Z,47.50
2023-04-27T06:07:28.902Z,47.61
2023-04-27T06:08:28.940Z,47.52
2023-04-27T06:09:28.965Z,47.58
2023-04-27T06:10:29.095Z,47.61
2023-04-27T06:11:29.034Z,47.76
2023-04-27T06:12:29.054Z,48.31
2023-04-27T06:13:29.078Z,48.22
2023-04-27T06:14:29.085Z,48.45
2023-04-27T06:15:29.090Z,48.63
2023-04-27T06:16:29.193Z,48.39
2023-04-27T06:17:29.148Z,48.48
2023-04-27T06:18:29.160Z,48.58
2023-04-27T06:19:29.254Z,48.46
2023-04-27T06:20:29.202Z,48.78
2023-04-27T06:21:29.238Z,48.99
2023-04-27T06:22:29.206Z,48.86
2023-04-27T06:23:29.269Z,48.79
2023-04-27T06:24:29.315Z,48.68
2023-04-27T06:25:29.421Z,48.95
2023-04-27T06:26:29.328Z,49.25
2023-04-27T06:27:29.375Z,49.27
2023-04-27T06:28:29.318Z,49.38
2023-04-27T06:29:29.325Z,49.53
2023-04-27T06:30:29.351Z,49.58
2023-04-27T06:31:29.457Z,49.42
2023-04-27T06:32:29.443Z,49.67
2023-04-27T06:33:29.401Z,49.65
2023-04-27T06:34:29.387Z,49.71
2023-04-27T06:35:29.433Z,49.64
2023-04-27T06:36:29.412Z,49.66
2023-04-27T06:37:29.897Z,49.75
2023-04-27T06:38:29.479Z,49.95
2023-04-27T06:39:29.454Z,49.74
2023-04-27T06:40:29.478Z,49.80
2023-04-27T06:41:29.478Z,50.06
2023-04-27T06:42:29.440Z,50.10
2023-04-27T06:43:29.446Z,50.31
2023-04-27T06:44:29.458Z,50.36
2023-04-27T06:45:29.502Z,50.63
2023-04-27T06:46:29.485Z,50.52
2023-04-27T06:47:29.487Z,50.55
2023-04-27T06:48:29.516Z,50.62
2023-04-27T06:49:29.501Z,51.51
2023-04-27T06:50:29.555Z,51.28
2023-04-27T06:51:29.537Z,51.12
2023-04-27T06:52:29.526Z,51.02
2023-04-27T06:53:29.521Z,51.17
2023-04-27T06:54:29.501Z,51.25
2023-04-27T06:55:29.532Z,51.20
2023-04-27T06:56:29.538Z,51.18
2023-04-27T06:57:29.537Z,50.98
2023-04-27T06:58:29.593Z,50.77
2023-04-27T06:59:29.602Z,50.60
2023-04-27T07:00:29.604Z,50.54
2023-04-27T07:01:29.846Z,50.35
2023-04-27T07:02:29.641Z,50.56
2023-04-27T07:03:29.863Z,50.33
2023-04-27T07:04:29.697Z,50.23
2023-04-27T07:05:29.655Z,50.04
2023-04-27T07:06:29.684Z,49.93
2023-04-27T07:07:29.721Z,49.76
2023-04-27T07:08:29.700Z,49.95
2023-04-27T07:09:29.829Z,49.85
2023-04-27T07:10:29.747Z,49.71
2023-04-27T07:11:29.770Z,49.72
2023-04-27T07:12:29.807Z,49.69
2023-04-27T07:13:29.861Z,49.69
2023-04-27T07:14:29.882Z,49.69
2023-04-27T07:15:29.935Z,49.69
2023-04-27T07:16:30.117Z,49.60
2023-04-27T07:17:30.039Z,49.39
2023-04-27T07:18:30.086Z,49.41
2023-04-27T07:19:30.150Z,49.40
2023-04-27T07:20:30.297Z,49.37
2023-04-27T07:21:30.258Z,49.31
2023-04-27T07:22:30.310Z,49.23
2023-04-27T07:23:30.388Z,49.13
2023-04-27T07:24:30.432Z,49.01
2023-04-27T07:25:30.505Z,48.79
2023-04-27T07:26:30.532Z,48.70
2023-04-27T07:27:30.552Z,48.56
2023-04-27T07:28:30.657Z,48.70
2023-04-27T07:29:30.867Z,48.69
2023-04-27T07:30:30.842Z,48.31
2023-04-27T07:31:30.856Z,48.52
2023-04-27T07:32:30.864Z,48.74
2023-04-27T07:33:31.391Z,48.79
2023-04-27T07:34:41.103Z,48.74
2023-04-27T07:35:31.999Z,48.79
2023-04-27T07:36:31.001Z,48.77
2023-04-27T07:37:30.976Z,48.76
2023-04-27T07:38:31.005Z,48.80
2023-04-27T07:39:30.952Z,48.93
2023-04-27T07:40:30.954Z,48.99
2023-04-27T07:41:30.984Z,49.11
2023-04-27T07:42:30.928Z,48.88
2023-04-27T07:43:31.434Z,48.96
2023-04-27T07:44:30.998Z,48.64
2023-04-27T07:45:31.091Z,46.54
2023-04-27T07:46:31.106Z,46.74
2023-04-27T07:47:31.151Z,47.05
2023-04-27T07:48:31.455Z,47.52
2023-04-27T07:49:31.237Z,47.28
2023-04-27T07:50:31.286Z,46.72
2023-04-27T07:51:31.273Z,46.57
2023-04-27T07:52:31.329Z,46.75
2023-04-27T07:53:31.383Z,46.48
2023-04-27T07:54:31.599Z,45.91
2023-04-27T07:55:31.476Z,45.85
2023-04-27T07:56:31.456Z,45.78
2023-04-27T07:57:31.533Z,45.80
2023-04-27T07:58:31.550Z,45.49
2023-04-27T07:59:31.554Z,45.59
2023-04-27T08:00:31.554Z,45.18
2023-04-27T08:01:31.608Z,44.97
2023-04-27T08:02:31.739Z,45.05
2023-04-27T08:03:31.934Z,44.93
2023-04-27T08:04:32.021Z,45.03
2023-04-27T08:05:32.145Z,44.70
2023-04-27T08:06:32.263Z,44.90
2023-04-27T08:07:31.998Z,44.68
2023-04-27T08:08:31.953Z,44.80
2023-04-27T08:09:31.889Z,44.74
2023-04-27T08:10:31.950Z,44.59
2023-04-27T08:11:31.973Z,44.37
2023-04-27T08:12:31.983Z,44.44
2023-04-27T08:13:32.433Z,44.34
2023-04-27T08:14:32.057Z,44.39
2023-04-27T08:15:32.088Z,44.27
2023-04-27T08:16:32.156Z,44.27
2023-04-27T08:17:32.201Z,44.27
2023-04-27T08:18:32.213Z,44.32
2023-04-27T08:19:32.270Z,44.63
2023-04-27T08:20:32.359Z,44.86
2023-04-27T08:21:32.355Z,45.00
2023-04-27T08:22:32.416Z,44.77
2023-04-27T08:23:32.470Z,43.84
2023-04-27T08:24:32.519Z,44.70
2023-04-27T08:25:32.535Z,44.86
2023-04-27T08:26:32.646Z,44.90
2023-04-27T08:27:32.641Z,44.45
2023-04-27T08:28:32.714Z,44.84
2023-04-27T08:29:32.961Z,44.56
2023-04-27T08:30:32.841Z,44.80
2023-04-27T08:31:32.886Z,44.74
2023-04-27T08:32:32.975Z,44.23
2023-04-27T08:33:33.004Z,44.54
2023-04-27T08:34:33.035Z,44.41
2023-04-27T08:35:33.105Z,43.76
2023-04-27T08:36:33.111Z,43.25
2023-04-27T08:37:33.149Z,43.25
2023-04-27T08:38:33.451Z,42.28
2023-04-27T08:39:33.133Z,43.37
2023-04-27T08:40:33.144Z,42.53
2023-04-27T08:41:33.148Z,42.06
2023-04-27T08:42:33.248Z,41.90
2023-04-27T08:43:33.173Z,42.43
2023-04-27T08:44:33.175Z,42.68
2023-04-27T08:45:33.177Z,42.26
2023-04-27T08:46:33.205Z,42.64
2023-04-27T08:47:42.576Z,43.29
2023-04-27T08:48:34.161Z,43.72
2023-04-27T08:49:33.143Z,43.72
2023-04-27T08:50:33.166Z,43.22
2023-04-27T08:51:33.164Z,43.89
2023-04-27T08:52:33.120Z,44.55
2023-04-27T08:53:33.450Z,45.44
2023-04-27T08:54:33.136Z,45.82
2023-04-27T08:55:33.126Z,46.24
2023-04-27T08:56:34.975Z,46.44
2023-04-27T08:57:33.106Z,46.44
2023-04-27T08:58:33.133Z,46.62
2023-04-27T08:59:33.139Z,46.80
2023-04-27T09:00:33.105Z,46.86
2023-04-27T09:01:33.146Z,46.97
2023-04-27T09:02:33.202Z,47.66
2023-04-27T09:03:33.184Z,47.79
2023-04-27T09:04:33.377Z,47.95
2023-04-27T09:05:33.318Z,47.95
2023-04-27T09:06:33.469Z,47.98
2023-04-27T09:07:33.407Z,47.87
2023-04-27T09:08:33.438Z,47.94
2023-04-27T09:09:33.511Z,47.80
2023-04-27T09:10:33.516Z,47.47
2023-04-27T09:11:33.618Z,47.30
2023-04-27T09:12:33.656Z,47.27
2023-04-27T09:13:33.713Z,47.38
2023-04-27T09:14:33.779Z,47.41
2023-04-27T09:15:33.964Z,47.40
2023-04-27T09:16:33.949Z,47.27
2023-04-27T09:17:34.033Z,47.37
2023-04-27T09:18:34.021Z,47.42
2023-04-27T09:19:34.054Z,47.35
2023-04-27T09:20:34.167Z,47.39
2023-04-27T09:21:34.214Z,47.56
2023-04-27T09:22:34.243Z,47.47
2023-04-27T09:23:34.338Z,47.40
2023-04-27T09:24:34.374Z,47.34
2023-04-27T09:25:34.413Z,47.15
2023-04-27T09:26:34.495Z,47.01
2023-04-27T09:27:34.542Z,45.37
2023-04-27T09:28:34.601Z,45.04
2023-04-27T09:29:34.637Z,45.77
2023-04-27T09:30:34.658Z,46.29
2023-04-27T09:31:34.816Z,47.03
2023-04-27T09:32:34.736Z,47.40
2023-04-27T09:33:34.732Z,47.12
2023-04-27T09:34:34.808Z,47.18
2023-04-27T09:35:34.860Z,47.27
2023-04-27T09:36:34.899Z,47.21
2023-04-27T09:37:34.985Z,47.25
2023-04-27T09:38:35.025Z,47.87
2023-04-27T09:39:35.457Z,47.86
2023-04-27T09:40:35.103Z,47.96
2023-04-27T09:41:35.128Z,48.14
2023-04-27T09:42:35.179Z,48.25
2023-04-27T09:43:35.191Z,48.58
2023-04-27T09:44:35.456Z,48.57
2023-04-27T09:45:35.327Z,48.93
2023-04-27T09:46:35.291Z,47.09
2023-04-27T09:47:35.379Z,47.56
2023-04-27T09:48:35.384Z,47.93
2023-04-27T09:49:35.486Z,47.98
2023-04-27T09:50:37.381Z,48.10
2023-04-27T09:51:35.655Z,48.30
2023-04-27T09:52:35.702Z,48.38
2023-04-27T09:53:35.737Z,48.36
2023-04-27T09:54:35.770Z,48.37
2023-04-27T09:55:35.772Z,48.38
2023-04-27T09:56:35.820Z,48.29
2023-04-27T09:57:35.849Z,48.26
2023-04-27T09:58:35.868Z,48.20
2023-04-27T09:59:35.958Z,48.17
2023-04-27T10:00:35.907Z,48.21
2023-04-27T10:01:37.428Z,48.16
2023-04-27T10:02:46.435Z,48.13
2023-04-27T10:03:37.076Z,48.15
2023-04-27T10:04:36.080Z,48.20
2023-04-27T10:05:35.942Z,48.19
2023-04-27T10:06:35.903Z,48.25
2023-04-27T10:07:35.904Z,48.24
2023-04-27T10:08:35.918Z,48.27
2023-04-27T10:09:35.893Z,48.28
2023-04-27T10:10:35.904Z,48.27
2023-04-27T10:11:35.876Z,48.24
2023-04-27T10:12:35.865Z,48.19
2023-04-27T10:13:35.881Z,48.16
2023-04-27T10:14:35.900Z,48.20
2023-04-27T10:15:35.874Z,48.22
2023-04-27T10:16:35.876Z,48.24
2023-04-27T10:17:35.922Z,48.25
2023-04-27T10:18:35.846Z,48.27
2023-04-27T10:19:35.845Z,48.25
2023-04-27T10:20:35.820Z,48.58
2023-04-27T10:21:35.821Z,48.80
2023-04-27T10:22:36.127Z,48.78
2023-04-27T10:23:35.802Z,48.72
2023-04-27T10:24:35.888Z,48.79
2023-04-27T10:25:35.912Z,48.56
2023-04-27T10:26:37.301Z,48.59
2023-04-27T10:27:36.143Z,48.52
2023-04-27T10:28:36.158Z,48.48
2023-04-27T10:29:36.140Z,48.26
2023-04-27T10:30:36.202Z,48.19
2023-04-27T10:31:36.242Z,48.27
2023-04-27T10:32:36.277Z,48.10
2023-04-27T10:33:36.280Z,47.98
2023-04-27T10:34:36.491Z,48.02
2023-04-27T10:35:36.292Z,47.93
2023-04-27T10:36:36.330Z,48.02
2023-04-27T10:37:36.380Z,47.36
2023-04-27T10:38:36.419Z,47.11
2023-04-27T10:39:47.702Z,47.11
2023-04-27T10:40:37.448Z,47.20
2023-04-27T10:41:36.402Z,47.60
2023-04-27T10:42:36.407Z,47.61
2023-04-27T10:43:36.390Z,47.80
2023-04-27T10:44:36.523Z,47.95
2023-04-27T10:45:36.376Z,48.02
2023-04-27T10:46:36.768Z,48.05
2023-04-27T10:47:36.410Z,48.00
2023-04-27T10:48:36.357Z,48.09
2023-04-27T10:49:36.359Z,48.12
2023-04-27T10:50:36.342Z,48.20
2023-04-27T10:51:36.345Z,48.21
2023-04-27T10:52:36.355Z,48.17
2023-04-27T10:53:36.333Z,48.38
2023-04-27T10:54:36.358Z,48.56
2023-04-27T10:55:36.343Z,48.84
2023-04-27T10:56:36.339Z,48.72
2023-04-27T10:57:36.313Z,48.61
2023-04-27T10:58:47.987Z,48.61
2023-04-27T10:59:37.393Z,48.58
2023-04-27T11:00:36.355Z,48.42
2023-04-27T11:01:36.348Z,48.32
2023-04-27T11:02:36.461Z,48.33
2023-04-27T11:03:36.711Z,48.25
2023-04-27T11:04:36.359Z,48.28
2023-04-27T11:05:36.329Z,48.22
2023-04-27T11:06:36.325Z,48.39
2023-04-27T11:07:36.318Z,48.44
2023-04-27T11:08:36.334Z,48.42
2023-04-27T11:09:36.424Z,48.42
2023-04-27T11:10:36.475Z,48.59
2023-04-27T11:11:36.572Z,48.68
2023-04-27T11:12:36.606Z,48.77
2023-04-27T11:13:36.623Z,48.88
2023-04-27T11:14:36.757Z,48.77
2023-04-27T11:15:36.723Z,48.63
2023-04-27T11:16:36.800Z,48.64
2023-04-27T11:17:36.877Z,48.67
2023-04-27T11:18:36.876Z,48.65
2023-04-27T11:19:36.954Z,48.60
2023-04-27T11:20:36.977Z,48.54
2023-04-27T11:21:37.035Z,48.64
2023-04-27T11:22:37.076Z,48.71
2023-04-27T11:23:37.119Z,48.54
2023-04-27T11:24:37.195Z,48.60
2023-04-27T11:25:37.215Z,48.87
2023-04-27T11:26:37.295Z,49.12
2023-04-27T11:27:37.329Z,49.11
2023-04-27T11:28:37.356Z,49.21
2023-04-27T11:29:37.496Z,49.16
2023-04-27T11:30:37.447Z,49.28
2023-04-27T11:31:37.500Z,49.51
2023-04-27T11:32:37.570Z,49.35
2023-04-27T11:33:37.589Z,49.15
2023-04-27T11:34:38.017Z,48.93
2023-04-27T11:35:37.640Z,48.67
2023-04-27T11:36:37.707Z,48.62
2023-04-27T11:37:37.715Z,48.43
2023-04-27T11:38:37.823Z,48.42
2023-04-27T11:39:37.848Z,48.72
2023-04-27T11:40:37.884Z,48.67
2023-04-27T11:41:37.963Z,48.70
2023-04-27T11:42:37.961Z,48.46
2023-04-27T11:43:38.019Z,48.46
2023-04-27T11:44:38.093Z,48.36
2023-04-27T11:45:38.125Z,47.85
2023-04-27T11:46:38.352Z,48.09
2023-04-27T11:47:38.314Z,47.97
2023-04-27T11:48:38.294Z,47.74
2023-04-27T11:49:38.361Z,46.51
2023-04-27T11:50:38.366Z,47.20
2023-04-27T11:51:38.425Z,47.08
2023-04-27T11:52:38.471Z,46.97
2023-04-27T11:53:38.535Z,47.05
2023-04-27T11:54:38.550Z,47.16
2023-04-27T11:55:38.593Z,46.87
2023-04-27T11:56:38.611Z,46.47
2023-04-27T11:57:38.662Z,46.88
2023-04-27T11:58:38.716Z,46.84
2023-04-27T11:59:38.724Z,46.16
2023-04-27T12:00:38.719Z,45.34
2023-04-27T12:01:38.698Z,45.31
2023-04-27T12:02:39.042Z,43.74
2023-04-27T12:03:39.144Z,45.98
2023-04-27T12:04:39.047Z,45.47
2023-04-27T12:05:38.934Z,45.13
2023-04-27T12:06:39.001Z,44.61
2023-04-27T12:07:38.898Z,45.11
2023-04-27T12:08:38.868Z,46.44
2023-04-27T12:09:38.870Z,46.33
2023-04-27T12:10:38.896Z,47.47
2023-04-27T12:11:38.934Z,47.57
2023-04-27T12:12:38.971Z,48.72
2023-04-27T12:13:38.936Z,49.20
2023-04-27T12:14:38.934Z,49.29
2023-04-27T12:15:38.936Z,49.66
2023-04-27T12:16:38.993Z,49.87
2023-04-27T12:17:39.012Z,49.95
2023-04-27T12:18:38.982Z,50.04
2023-04-27T12:19:39.033Z,49.82
2023-04-27T12:20:39.034Z,49.70
2023-04-27T12:21:39.081Z,49.60
2023-04-27T12:22:39.053Z,49.71
2023-04-27T12:23:39.147Z,49.46
2023-04-27T12:24:39.109Z,49.23
2023-04-27T12:25:39.143Z,49.22
2023-04-27T12:26:39.173Z,48.85
2023-04-27T12:27:39.195Z,49.04
2023-04-27T12:28:39.173Z,48.84
2023-04-27T12:29:39.222Z,49.05
2023-04-27T12:30:39.261Z,49.09
2023-04-27T12:31:39.295Z,49.10
2023-04-27T12:32:39.272Z,49.02
2023-04-27T12:33:39.263Z,48.69
2023-04-27T12:34:39.274Z,48.43
2023-04-27T12:35:39.249Z,48.19
2023-04-27T12:36:39.285Z,48.07
2023-04-27T12:37:39.299Z,48.16
2023-04-27T12:38:39.315Z,48.02
2023-04-27T12:39:39.354Z,47.57
2023-04-27T12:40:39.331Z,47.48
2023-04-27T12:41:39.347Z,47.82
2023-04-27T12:42:39.369Z,47.75
2023-04-27T12:43:39.379Z,47.81
2023-04-27T12:44:39.389Z,47.82
2023-04-27T12:45:39.388Z,47.79
2023-04-27T12:46:39.460Z,46.92
2023-04-27T12:47:58.114Z,47.19
2023-04-27T12:48:40.466Z,46.83
2023-04-27T12:49:39.422Z,46.78
2023-04-27T12:50:39.438Z,46.83
2023-04-27T12:51:39.444Z,46.74
2023-04-27T12:52:39.409Z,46.59